Time;durP1;ratioP1;P1;durP2;ratioP2;P2;SDS_P1;SDS_P2;PMS_P1;PMS_P2;Temp;Humidity;BMP_temperature;BMP_pressure;BME280_temperature;BME280_humidity;BME280_pressure;Samples;Min_cycle;Max_cycle;Signal;HPM_P1;HPM_P2
2021/10/27 00:00:57;;;;;;;86.05;13.88;;;13.20;91.60;;;;;;5007639;28;20112;-66
2021/10/27 00:03:22;;;;;;;65.20;12.40;;;13.20;91.60;;;;;;5038828;28;20036;-66
2021/10/27 00:05:48;;;;;;;81.53;15.18;;;13.20;91.60;;;;;;5002883;28;20134;-65
2021/10/27 00:08:14;;;;;;;79.07;13.38;;;13.20;91.80;;;;;;5021211;28;20554;-66
2021/10/27 00:10:39;;;;;;;65.70;11.98;;;13.20;91.80;;;;;;5023301;28;20064;-66
2021/10/27 00:13:08;;;;;;;70.30;12.15;;;13.10;91.80;;;;;;5036501;28;20021;-65
2021/10/27 00:15:33;;;;;;;60.03;13.68;;;13.20;91.70;;;;;;4986992;28;20059;-65
2021/10/27 00:18:00;;;;;;;55.35;11.85;;;13.10;91.80;;;;;;5003823;28;20436;-66
2021/10/27 00:20:25;;;;;;;74.15;12.85;;;13.10;91.80;;;;;;5041885;28;20047;-67
2021/10/27 00:22:51;;;;;;;65.22;12.45;;;13.10;91.90;;;;;;5020766;28;20685;-65
2021/10/27 00:25:17;;;;;;;64.95;12.55;;;13.10;92.00;;;;;;5014566;28;20045;-65
2021/10/27 00:27:42;;;;;;;56.45;12.27;;;13.00;92.00;;;;;;5022994;28;20033;-66
2021/10/27 00:30:09;;;;;;;61.75;12.43;;;13.00;92.10;;;;;;5023217;28;20026;-65
2021/10/27 00:32:34;;;;;;;60.90;11.93;;;13.00;92.00;;;;;;5021876;28;20021;-67
2021/10/27 00:35:00;;;;;;;44.13;11.18;;;12.90;92.00;;;;;;5035529;28;20041;-65
2021/10/27 00:37:25;;;;;;;46.78;11.05;;;12.90;92.00;;;;;;5004874;28;20095;-67
2021/10/27 00:39:51;;;;;;;46.50;10.85;;;12.90;92.00;;;;;;5022478;28;20035;-66
2021/10/27 00:42:17;;;;;;;42.20;10.30;;;12.90;92.00;;;;;;5039969;28;20051;-66
2021/10/27 00:44:42;;;;;;;54.25;10.77;;;12.90;92.00;;;;;;5004621;28;20036;-66
2021/10/27 00:47:09;;;;;;;52.03;10.90;;;12.80;92.10;;;;;;5005858;28;20117;-65
2021/10/27 00:49:36;;;;;;;50.97;12.25;;;12.80;92.10;;;;;;5019114;28;20053;-66
2021/10/27 00:52:04;;;;;;;34.13;10.10;;;12.80;92.10;;;;;;5022313;28;20036;-66
2021/10/27 00:54:30;;;;;;;43.55;10.73;;;12.70;92.10;;;;;;5004145;28;20056;-65
2021/10/27 00:56:56;;;;;;;50.63;10.30;;;12.80;92.10;;;;;;5020527;28;20026;-65
2021/10/27 00:59:23;;;;;;;35.38;9.77;;;12.80;92.10;;;;;;5015382;28;20674;-66
2021/10/27 01:01:51;;;;;;;34.90;9.30;;;12.70;92.00;;;;;;5022730;28;20106;-65
2021/10/27 01:04:17;;;;;;;40.58;9.40;;;12.70;92.00;;;;;;4999621;28;20057;-65
2021/10/27 01:06:43;;;;;;;38.42;10.05;;;12.70;92.10;;;;;;5003878;28;20099;-66
2021/10/27 01:09:08;;;;;;;41.33;10.60;;;12.70;92.10;;;;;;5037678;28;20108;-65
2021/10/27 01:11:34;;;;;;;30.42;9.40;;;12.70;92.30;;;;;;5004613;28;20388;-66
2021/10/27 01:14:00;;;;;;;35.75;9.55;;;12.60;92.00;;;;;;5006288;28;20049;-66
2021/10/27 01:16:26;;;;;;;36.38;9.35;;;12.70;92.10;;;;;;5022124;28;20045;-67
2021/10/27 01:18:53;;;;;;;28.98;8.60;;;12.60;92.00;;;;;;5004806;28;20063;-66
2021/10/27 01:21:26;;;;;;;33.20;8.95;;;12.60;92.10;;;;;;4995664;28;20070;-66
2021/10/27 01:23:52;;;;;;;36.22;9.48;;;12.60;92.00;;;;;;5008985;28;20040;-66
2021/10/27 01:26:17;;;;;;;35.78;9.45;;;12.60;92.10;;;;;;5008487;28;20191;-66
2021/10/27 01:28:43;;;;;;;25.10;7.93;;;12.50;92.00;;;;;;5024941;28;20112;-66
2021/10/27 01:31:09;;;;;;;26.75;8.40;;;12.60;92.00;;;;;;5025608;28;20061;-66
2021/10/27 01:33:35;;;;;;;37.25;9.70;;;12.60;92.00;;;;;;4995007;28;20029;-66
2021/10/27 01:36:00;;;;;;;27.33;8.57;;;12.50;92.00;;;;;;5023351;28;20037;-66
2021/10/27 01:38:26;;;;;;;31.30;8.07;;;12.50;92.00;;;;;;5010517;28;20064;-65
2021/10/27 01:40:52;;;;;;;21.10;8.13;;;12.50;92.10;;;;;;5022819;28;20029;-66
2021/10/27 01:43:17;;;;;;;24.95;7.95;;;12.40;92.00;;;;;;5019242;28;20044;-66
2021/10/27 01:45:43;;;;;;;25.02;6.90;;;12.40;92.00;;;;;;5021306;28;20045;-66
2021/10/27 01:48:09;;;;;;;26.10;7.20;;;12.40;92.00;;;;;;5025330;28;20134;-66
2021/10/27 01:50:35;;;;;;;28.73;6.95;;;12.50;92.00;;;;;;4993605;28;20060;-65
2021/10/27 01:53:00;;;;;;;23.45;7.70;;;12.40;92.00;;;;;;5010112;28;20553;-66
2021/10/27 01:55:27;;;;;;;27.20;7.13;;;12.40;92.00;;;;;;5002044;28;20109;-65
2021/10/27 01:57:52;;;;;;;26.60;7.53;;;12.40;92.00;;;;;;5034134;28;20021;-65
2021/10/27 02:00:18;;;;;;;32.80;8.55;;;12.40;92.00;;;;;;4993511;28;20043;-66
2021/10/27 02:02:44;;;;;;;24.33;7.53;;;12.40;92.00;;;;;;5024523;28;20550;-66
2021/10/27 02:05:09;;;;;;;19.10;7.68;;;12.40;92.00;;;;;;5016671;28;20037;-66
2021/10/27 02:07:35;;;;;;;20.65;7.50;;;12.40;92.10;;;;;;5025738;28;20059;-66
2021/10/27 02:10:01;;;;;;;21.65;8.07;;;12.30;92.10;;;;;;5024145;28;20053;-66
2021/10/27 02:12:27;;;;;;;18.70;7.70;;;12.40;92.10;;;;;;5042389;28;20120;-66
2021/10/27 02:14:52;;;;;;;19.63;8.27;;;12.40;92.10;;;;;;5022294;28;20458;-65
2021/10/27 02:17:18;;;;;;;23.65;8.93;;;12.30;92.10;;;;;;5006835;28;20400;-66
2021/10/27 02:19:43;;;;;;;24.30;7.90;;;12.30;92.10;;;;;;5008545;28;20079;-65
2021/10/27 02:22:09;;;;;;;23.83;8.95;;;12.30;92.10;;;;;;5040541;28;20075;-66
2021/10/27 02:24:34;;;;;;;23.17;8.73;;;12.30;92.10;;;;;;4989187;28;20029;-66
2021/10/27 02:27:00;;;;;;;23.83;8.32;;;12.30;92.10;;;;;;5005770;28;20120;-66
2021/10/27 02:29:25;;;;;;;23.30;8.95;;;12.30;92.10;;;;;;5006597;28;20162;-66
2021/10/27 02:31:51;;;;;;;18.10;7.70;;;12.30;92.20;;;;;;5019689;28;20414;-66
2021/10/27 02:34:17;;;;;;;20.83;7.75;;;12.30;92.20;;;;;;5000963;28;20045;-66
2021/10/27 02:36:42;;;;;;;14.85;7.40;;;12.30;92.20;;;;;;5020780;28;20025;-66
2021/10/27 02:39:09;;;;;;;14.98;6.68;;;12.30;92.20;;;;;;5025845;28;20020;-66
2021/10/27 02:41:35;;;;;;;22.92;7.88;;;12.30;92.30;;;;;;5009770;28;20044;-66
2021/10/27 02:44:00;;;;;;;26.90;9.05;;;12.30;92.30;;;;;;5005854;28;20137;-65
2021/10/27 02:46:26;;;;;;;20.83;8.20;;;12.30;92.30;;;;;;4999127;28;20108;-66
2021/10/27 02:48:52;;;;;;;22.00;8.35;;;12.30;92.30;;;;;;5006405;28;20055;-66
2021/10/27 02:51:17;;;;;;;21.58;9.05;;;12.30;92.30;;;;;;5008676;28;20053;-66
2021/10/27 02:53:43;;;;;;;23.95;8.18;;;12.30;92.30;;;;;;5025250;28;20109;-66
2021/10/27 02:56:08;;;;;;;16.88;7.88;;;12.20;92.30;;;;;;5005113;28;20041;-66
2021/10/27 02:58:34;;;;;;;21.50;8.35;;;12.20;92.30;;;;;;5002251;28;20032;-65
2021/10/27 03:01:00;;;;;;;15.10;7.72;;;12.30;92.30;;;;;;5006709;28;20041;-66
2021/10/27 03:03:25;;;;;;;21.67;8.82;;;12.30;92.20;;;;;;5008463;28;20443;-65
2021/10/27 03:05:51;;;;;;;24.02;8.35;;;12.30;92.20;;;;;;5004613;28;20025;-66
2021/10/27 03:08:16;;;;;;;29.25;8.18;;;12.30;92.30;;;;;;5025173;28;20155;-66
2021/10/27 03:10:42;;;;;;;21.98;8.07;;;12.30;92.30;;;;;;5007092;28;20060;-66
2021/10/27 03:13:07;;;;;;;21.10;7.93;;;12.30;92.30;;;;;;5021946;28;20498;-66
2021/10/27 03:15:33;;;;;;;18.92;7.50;;;12.30;92.30;;;;;;5000994;28;20166;-65
2021/10/27 03:17:59;;;;;;;23.17;7.93;;;12.20;92.30;;;;;;5010035;28;20059;-67
2021/10/27 03:20:24;;;;;;;25.17;7.47;;;12.20;92.30;;;;;;5024892;28;20116;-66
2021/10/27 03:22:50;;;;;;;23.98;8.57;;;12.20;92.30;;;;;;5007677;28;20113;-66
2021/10/27 03:25:15;;;;;;;13.35;7.82;;;12.20;92.30;;;;;;5017127;28;20053;-66
2021/10/27 03:27:41;;;;;;;15.35;7.95;;;12.20;92.30;;;;;;5007561;28;20124;-66
2021/10/27 03:30:07;;;;;;;16.58;7.18;;;12.20;92.30;;;;;;5036214;28;20051;-65
2021/10/27 03:32:33;;;;;;;18.95;6.85;;;12.20;92.40;;;;;;5038851;28;20025;-65
2021/10/27 03:34:58;;;;;;;17.35;7.72;;;12.20;92.30;;;;;;5004416;28;20094;-65
2021/10/27 03:37:24;;;;;;;11.45;6.93;;;12.20;92.40;;;;;;5039793;28;20247;-66
2021/10/27 03:39:49;;;;;;;14.27;6.60;;;12.20;92.40;;;;;;5016653;28;20033;-65
2021/10/27 03:42:15;;;;;;;18.05;7.40;;;12.20;92.40;;;;;;5006186;28;20025;-66
2021/10/27 03:44:41;;;;;;;17.45;7.72;;;12.20;92.40;;;;;;5004161;28;20028;-66
2021/10/27 03:47:06;;;;;;;18.13;8.02;;;12.20;92.40;;;;;;5004245;28;20530;-66
2021/10/27 03:49:32;;;;;;;13.75;7.60;;;12.20;92.40;;;;;;5004233;28;20528;-66
2021/10/27 03:51:58;;;;;;;17.08;8.52;;;12.20;92.40;;;;;;4999314;28;20148;-66
2021/10/27 03:54:23;;;;;;;13.52;7.47;;;12.20;92.50;;;;;;5004796;28;20114;-65
2021/10/27 03:56:49;;;;;;;15.60;7.95;;;12.20;92.50;;;;;;5006679;28;20036;-65
2021/10/27 03:59:15;;;;;;;16.05;7.15;;;12.20;92.50;;;;;;5037766;28;20029;-66
2021/10/27 04:01:41;;;;;;;13.90;7.32;;;12.20;92.50;;;;;;5038501;28;20044;-65
2021/10/27 04:04:07;;;;;;;15.35;7.70;;;12.20;92.40;;;;;;5002340;28;21293;-66
2021/10/27 04:06:32;;;;;;;13.63;7.43;;;12.20;92.50;;;;;;5004683;28;20203;-65
2021/10/27 04:08:58;;;;;;;16.15;7.57;;;12.20;92.40;;;;;;5006525;28;20276;-66
2021/10/27 04:11:23;;;;;;;16.13;7.40;;;12.20;92.40;;;;;;5023209;28;20166;-65
2021/10/27 04:13:49;;;;;;;15.70;7.93;;;12.20;92.40;;;;;;5020098;28;20029;-66
2021/10/27 04:16:14;;;;;;;14.98;7.75;;;12.10;92.40;;;;;;4998257;28;20203;-66
2021/10/27 04:18:40;;;;;;;13.30;7.82;;;12.20;92.50;;;;;;4987413;28;20044;-65
2021/10/27 04:21:05;;;;;;;14.35;7.57;;;12.10;92.50;;;;;;5006270;28;20064;-65
2021/10/27 04:23:31;;;;;;;16.13;7.93;;;12.20;92.50;;;;;;5008846;28;20068;-66
2021/10/27 04:25:57;;;;;;;15.68;7.68;;;12.20;92.50;;;;;;5038392;28;20056;-66
2021/10/27 04:28:22;;;;;;;14.48;7.82;;;12.10;92.50;;;;;;5018837;28;20053;-66
2021/10/27 04:30:48;;;;;;;11.82;7.00;;;12.20;92.50;;;;;;5005676;28;20087;-66
2021/10/27 04:33:15;;;;;;;11.80;6.78;;;12.20;92.50;;;;;;5021155;28;20037;-66
2021/10/27 04:35:41;;;;;;;15.63;7.80;;;12.20;92.50;;;;;;5005346;28;20522;-66
2021/10/27 04:38:06;;;;;;;18.35;7.40;;;12.10;92.50;;;;;;5025419;28;20029;-65
2021/10/27 04:40:32;;;;;;;13.60;7.90;;;12.10;92.50;;;;;;5023054;28;20028;-66
2021/10/27 04:42:57;;;;;;;25.35;7.80;;;12.10;92.50;;;;;;5020574;28;20028;-65
2021/10/27 04:45:24;;;;;;;13.57;7.78;;;12.10;92.50;;;;;;5002606;28;20389;-66
2021/10/27 04:47:49;;;;;;;12.13;6.60;;;12.10;92.50;;;;;;5010445;28;20290;-66
2021/10/27 04:50:15;;;;;;;11.50;6.90;;;12.10;92.50;;;;;;5010349;28;20087;-66
2021/10/27 04:52:40;;;;;;;9.48;7.00;;;12.10;92.50;;;;;;5028852;28;20331;-65
2021/10/27 04:55:06;;;;;;;19.20;7.75;;;12.10;92.50;;;;;;5023012;28;20041;-66
2021/10/27 04:57:32;;;;;;;15.32;6.57;;;12.10;92.50;;;;;;5009896;28;20117;-66
2021/10/27 04:59:57;;;;;;;11.23;7.28;;;12.10;92.50;;;;;;5025514;28;20296;-66
2021/10/27 05:02:24;;;;;;;10.23;6.28;;;12.00;92.50;;;;;;5008688;28;20563;-65
2021/10/27 05:04:51;;;;;;;12.68;6.55;;;12.00;92.50;;;;;;5024091;28;20036;-66
2021/10/27 05:07:16;;;;;;;8.90;7.07;;;12.00;92.50;;;;;;5010792;28;20090;-66
2021/10/27 05:09:42;;;;;;;7.45;6.18;;;12.00;92.50;;;;;;5009859;28;20383;-65
2021/10/27 05:12:08;;;;;;;11.65;7.75;;;12.00;92.50;;;;;;5023686;28;20473;-65
2021/10/27 05:14:38;;;;;;;12.98;6.32;;;12.00;92.60;;;;;;5008465;28;20041;-65
2021/10/27 05:17:11;;;;;;;8.52;6.10;;;12.00;92.60;;;;;;5016069;28;20044;-66
2021/10/27 05:19:40;;;;;;;11.02;8.07;;;12.00;92.60;;;;;;5010885;28;20036;-65
2021/10/27 05:22:06;;;;;;;11.77;6.95;;;12.00;92.60;;;;;;5007889;28;20029;-66
2021/10/27 05:24:32;;;;;;;10.77;7.15;;;12.00;92.60;;;;;;5006736;28;20072;-65
2021/10/27 05:26:58;;;;;;;11.93;6.90;;;12.00;92.80;;;;;;5007082;28;20037;-66
2021/10/27 05:29:24;;;;;;;13.05;6.80;;;12.00;92.60;;;;;;5033636;28;20055;-66
2021/10/27 05:31:50;;;;;;;11.88;7.10;;;11.90;92.60;;;;;;5009091;28;20013;-66
2021/10/27 05:34:15;;;;;;;11.88;7.03;;;11.90;92.50;;;;;;5019768;28;20046;-66
2021/10/27 05:36:41;;;;;;;12.75;7.15;;;12.00;92.60;;;;;;5023409;28;20037;-66
2021/10/27 05:39:07;;;;;;;9.98;7.15;;;12.00;92.60;;;;;;5029545;28;20013;-66
2021/10/27 05:41:32;;;;;;;10.82;7.75;;;11.90;92.50;;;;;;5009985;28;20083;-66
2021/10/27 05:43:58;;;;;;;10.80;6.68;;;11.90;92.50;;;;;;5009235;28;20122;-66
2021/10/27 05:46:24;;;;;;;9.98;7.10;;;11.90;92.60;;;;;;5040662;28;20440;-66
2021/10/27 05:48:59;;;;;;;11.27;7.13;;;11.90;92.60;;;;;;5026542;28;20125;-65
2021/10/27 05:51:47;;;;;;;12.98;7.90;;;11.80;92.60;;;;;;5008644;28;20069;-66
2021/10/27 05:56:56;;;;;;;9.82;7.75;;;11.80;92.70;;;;;;5023567;28;20175;-66
2021/10/27 05:59:22;;;;;;;11.77;7.10;;;11.80;92.60;;;;;;4996552;28;20212;-65
2021/10/27 06:01:48;;;;;;;9.55;7.43;;;11.80;92.70;;;;;;5001325;28;20052;-65
2021/10/27 06:04:16;;;;;;;10.07;7.15;;;11.80;92.70;;;;;;4997760;28;20377;-66
2021/10/27 06:06:41;;;;;;;11.75;7.15;;;11.80;92.70;;;;;;5004275;28;20427;-66
2021/10/27 06:09:07;;;;;;;10.25;7.97;;;11.80;92.70;;;;;;5007004;28;20032;-65
2021/10/27 06:11:33;;;;;;;11.38;7.60;;;11.80;92.70;;;;;;5022390;28;20036;-66
2021/10/27 06:14:00;;;;;;;12.00;7.03;;;11.80;92.60;;;;;;5034612;28;20051;-65
2021/10/27 06:16:26;;;;;;;11.35;7.35;;;11.80;92.70;;;;;;5002144;28;20812;-65
2021/10/27 06:18:51;;;;;;;9.10;7.10;;;11.80;92.70;;;;;;5020152;28;20087;-66
2021/10/27 06:21:17;;;;;;;10.98;7.88;;;11.80;92.70;;;;;;5007097;28;20044;-65
2021/10/27 06:23:43;;;;;;;14.60;8.02;;;11.80;92.70;;;;;;5020783;28;20980;-66
2021/10/27 06:26:08;;;;;;;12.05;7.70;;;11.80;92.70;;;;;;5017444;28;20548;-65
2021/10/27 06:29:22;;;;;;;11.52;8.00;;;11.80;92.70;;;;;;5020834;28;20025;-65
2021/10/27 06:31:31;;;;;;;19.83;8.93;;;11.80;92.70;;;;;;5001076;28;20404;-65
2021/10/27 06:34:42;;;;;;;28.02;10.10;;;11.80;92.70;;;;;;5004731;28;20037;-65
2021/10/27 06:47:17;;;;;;;27.85;9.00;;;11.80;92.80;;;;;;5024634;28;20118;-65
2021/10/27 06:49:43;;;;;;;25.83;8.65;;;11.80;92.90;;;;;;5008507;28;20111;-65
2021/10/27 06:52:09;;;;;;;29.10;9.60;;;11.80;92.90;;;;;;5007302;28;20547;-66
2021/10/27 06:54:34;;;;;;;44.58;9.05;;;11.80;92.90;;;;;;5025113;28;20029;-65
2021/10/27 06:57:00;;;;;;;25.30;9.38;;;11.80;92.80;;;;;;5006779;28;20495;-65
2021/10/27 07:14:57;;;;;;;32.78;10.52;;;11.80;92.90;;;;;;5013822;28;20392;-66
2021/10/27 07:15:35;;;;;;;29.73;10.13;;;11.80;93.10;;;;;;5027078;28;20167;-66
2021/10/27 07:18:01;;;;;;;24.08;9.75;;;11.80;93.10;;;;;;5008452;28;20049;-65
2021/10/27 07:20:28;;;;;;;37.10;10.95;;;11.70;93.10;;;;;;5022934;28;20527;-66
2021/10/27 07:22:56;;;;;;;25.73;9.90;;;11.70;93.10;;;;;;5006812;28;20048;-65
2021/10/27 07:25:22;;;;;;;28.08;10.70;;;11.70;93.10;;;;;;5006643;28;20056;-65
2021/10/27 07:27:50;;;;;;;35.55;10.02;;;11.70;93.20;;;;;;5039861;28;20084;-66
2021/10/27 07:30:16;;;;;;;37.42;11.10;;;11.70;93.20;;;;;;5004952;28;20384;-65
2021/10/27 07:32:41;;;;;;;40.33;11.73;;;11.70;93.20;;;;;;5036653;28;20020;-65
2021/10/27 07:42:57;;;;;;;27.00;10.65;;;11.70;93.20;;;;;;5021174;28;20392;-66
2021/10/27 07:45:25;;;;;;;29.58;9.95;;;11.70;93.10;;;;;;5017424;28;20078;-65
2021/10/27 07:47:50;;;;;;;28.17;10.05;;;11.70;93.10;;;;;;5005454;28;20392;-65
2021/10/27 07:50:16;;;;;;;22.40;10.00;;;11.70;93.10;;;;;;5022684;28;20028;-66
2021/10/27 07:52:42;;;;;;;26.77;10.27;;;11.70;93.10;;;;;;5021040;28;20418;-65
2021/10/27 07:55:08;;;;;;;24.65;10.15;;;11.70;93.10;;;;;;5006585;28;20031;-65
2021/10/27 07:57:33;;;;;;;30.48;10.50;;;11.70;93.40;;;;;;5019350;28;20069;-65
2021/10/27 07:59:59;;;;;;;23.35;9.60;;;11.70;93.10;;;;;;5034237;28;20039;-66
2021/10/27 08:02:24;;;;;;;45.15;9.50;;;11.60;93.10;;;;;;5004783;28;20080;-66
2021/10/27 08:04:50;;;;;;;29.00;9.75;;;11.60;93.10;;;;;;5040277;28;20036;-66
2021/10/27 08:07:16;;;;;;;25.05;9.40;;;11.60;93.10;;;;;;5035802;28;20040;-65
2021/10/27 08:09:41;;;;;;;22.65;9.40;;;11.60;93.10;;;;;;5023059;28;20041;-66
2021/10/27 08:12:07;;;;;;;28.33;10.05;;;11.60;93.10;;;;;;5019460;28;20045;-65
2021/10/27 08:14:33;;;;;;;24.52;9.60;;;11.60;93.00;;;;;;5019839;28;20151;-65
2021/10/27 08:16:58;;;;;;;25.45;9.88;;;11.70;93.00;;;;;;5036245;28;20029;-66
2021/10/27 08:19:24;;;;;;;28.60;9.18;;;11.60;93.00;;;;;;5004084;28;20048;-65
2021/10/27 08:21:49;;;;;;;26.52;9.95;;;11.70;93.00;;;;;;5036300;28;20048;-66
2021/10/27 08:24:22;;;;;;;29.95;9.10;;;11.70;93.00;;;;;;5020896;28;20440;-66
2021/10/27 08:26:53;;;;;;;37.25;10.82;;;11.60;93.00;;;;;;5001447;28;20486;-65
2021/10/27 08:29:24;;;;;;;34.65;10.45;;;11.60;93.00;;;;;;5022102;28;20534;-65
2021/10/27 08:31:56;;;;;;;31.95;11.18;;;11.60;93.00;;;;;;5033460;28;20036;-65
2021/10/27 08:34:34;;;;;;;33.38;10.43;;;11.60;93.00;;;;;;5031694;28;20106;-65
2021/10/27 08:37:00;;;;;;;28.92;10.48;;;11.60;93.00;;;;;;5021072;28;20039;-65
2021/10/27 08:39:25;;;;;;;34.25;10.73;;;11.70;93.00;;;;;;5020518;28;20046;-65
2021/10/27 08:41:51;;;;;;;42.03;11.55;;;11.60;92.90;;;;;;5005142;28;20047;-65
2021/10/27 08:44:17;;;;;;;28.30;11.15;;;11.70;92.90;;;;;;5022601;28;20139;-65
2021/10/27 08:46:43;;;;;;;28.10;11.25;;;11.70;92.90;;;;;;5004054;28;20083;-66
2021/10/27 08:49:08;;;;;;;29.25;11.23;;;11.70;92.90;;;;;;5013691;28;20192;-66
2021/10/27 08:51:35;;;;;;;33.60;10.60;;;11.70;92.90;;;;;;5016652;28;20052;-65
2021/10/27 08:54:01;;;;;;;31.67;11.30;;;11.70;92.90;;;;;;5004698;28;20501;-66
2021/10/27 08:56:27;;;;;;;24.98;10.20;;;11.70;92.90;;;;;;5021422;28;20055;-65
2021/10/27 08:59:00;;;;;;;30.25;10.52;;;11.70;92.90;;;;;;5019814;28;20128;-65
2021/10/27 09:01:41;;;;;;;42.30;10.65;;;11.70;92.90;;;;;;5022613;28;20055;-65
2021/10/27 09:04:44;;;;;;;36.88;10.10;;;11.80;92.90;;;;;;5006979;28;20455;-66
2021/10/27 09:07:13;;;;;;;29.60;9.88;;;11.80;92.80;;;;;;5005578;28;20613;-66
2021/10/27 09:41:10;;;;;;;32.55;11.05;;;11.90;92.60;;;;;;5008277;28;20507;-66
2021/10/27 09:46:35;;;;;;;30.90;11.68;;;12.00;92.50;;;;;;5035553;28;20557;-66
2021/10/27 10:05:20;;;;;;;35.85;11.90;;;12.10;92.30;;;;;;5028184;28;20032;-65
2021/10/27 10:07:46;;;;;;;32.47;12.18;;;12.10;92.30;;;;;;5038222;28;20428;-66
2021/10/27 10:10:12;;;;;;;45.25;13.30;;;12.10;92.30;;;;;;5025179;28;20025;-65
2021/10/27 10:12:51;;;;;;;27.88;12.32;;;12.10;92.20;;;;;;5007062;28;20516;-66
2021/10/27 10:15:21;;;;;;;28.00;11.38;;;12.10;92.20;;;;;;5025315;28;20030;-65
2021/10/27 10:17:47;;;;;;;28.48;11.13;;;12.20;92.20;;;;;;5011911;28;20096;-67
2021/10/27 10:20:13;;;;;;;33.53;11.82;;;12.20;92.20;;;;;;5008236;28;20040;-65
2021/10/27 10:22:39;;;;;;;40.35;11.77;;;12.10;92.20;;;;;;5010077;28;20025;-66
2021/10/27 10:25:17;;;;;;;41.22;12.70;;;12.20;92.20;;;;;;5011914;28;20048;-66
2021/10/27 10:27:42;;;;;;;28.92;11.50;;;12.20;92.20;;;;;;5023665;28;20472;-65
2021/10/27 10:30:33;;;;;;;26.95;11.18;;;12.20;92.20;;;;;;5024369;28;20524;-66
2021/10/27 10:33:04;;;;;;;34.83;13.07;;;12.30;92.30;;;;;;5033597;28;20074;-65
2021/10/27 10:35:56;;;;;;;26.20;11.45;;;12.20;92.30;;;;;;5015476;28;20036;-66
2021/10/27 10:44:25;;;;;;;27.27;12.40;;;12.30;92.40;;;;;;5034806;28;20381;-67
2021/10/27 11:02:09;;;;;;;24.98;11.88;;;12.40;92.30;;;;;;5036983;28;20063;-66
2021/10/27 11:41:08;;;;;;;29.83;12.50;;;12.70;92.30;;;;;;5006996;28;20033;-66
2021/10/27 11:43:54;;;;;;;23.58;10.77;;;12.70;92.30;;;;;;5023261;28;20340;-65
2021/10/27 11:46:26;;;;;;;;;;;12.70;92.20;;;;;;5030840;28;20200;-66
2021/10/27 11:48:56;;;;;;;31.10;11.13;;;12.70;92.20;;;;;;5036727;28;19913;-65
2021/10/27 11:51:22;;;;;;;24.88;11.05;;;12.80;92.20;;;;;;5005233;28;20056;-66
2021/10/27 11:53:49;;;;;;;26.77;11.50;;;12.80;92.20;;;;;;5033618;28;20049;-66
2021/10/27 11:56:16;;;;;;;32.50;11.25;;;12.80;92.20;;;;;;4984290;28;20493;-66
2021/10/27 11:58:43;;;;;;;29.92;12.52;;;12.80;92.20;;;;;;4999105;28;20413;-65
2021/10/27 12:01:23;;;;;;;38.20;12.20;;;12.90;92.20;;;;;;5005623;28;20116;-65
2021/10/27 12:03:49;;;;;;;38.17;12.50;;;12.90;92.10;;;;;;5018753;28;20080;-66
2021/10/27 12:07:12;;;;;;;35.05;11.90;;;12.90;92.10;;;;;;5015825;28;20044;-67
2021/10/27 12:12:09;;;;;;;36.95;11.77;;;13.00;92.10;;;;;;5004375;28;20047;-66
2021/10/27 12:17:32;;;;;;;43.58;12.60;;;13.00;92.20;;;;;;4993714;28;20168;-65
2021/10/27 12:19:57;;;;;;;42.58;12.65;;;13.10;92.20;;;;;;5028893;28;20052;-66
2021/10/27 12:22:23;;;;;;;55.45;14.02;;;13.10;92.20;;;;;;5009927;28;20572;-65
2021/10/27 12:24:55;;;;;;;66.28;14.07;;;13.10;92.10;;;;;;4997913;28;20045;-65
2021/10/27 12:27:27;;;;;;;48.33;13.70;;;13.10;92.00;;;;;;4984681;28;20033;-66
2021/10/27 12:29:53;;;;;;;42.42;13.38;;;13.20;92.00;;;;;;5001709;28;20033;-66
2021/10/27 12:32:19;;;;;;;32.40;12.63;;;13.20;92.00;;;;;;5018172;28;20507;-64
2021/10/27 12:34:48;;;;;;;48.20;12.40;;;13.20;92.00;;;;;;5017857;28;20076;-65
2021/10/27 12:37:28;;;;;;;66.00;14.75;;;13.20;91.90;;;;;;5019611;28;20044;-65
2021/10/27 12:40:16;;;;;;;57.13;14.27;;;13.20;91.90;;;;;;5018034;28;20111;-65
2021/10/27 12:42:42;;;;;;;70.70;15.18;;;13.30;92.00;;;;;;5018536;28;20041;-65
2021/10/27 12:45:07;;;;;;;73.25;15.23;;;13.30;92.00;;;;;;5015555;28;20053;-64
2021/10/27 12:47:34;;;;;;;77.57;15.07;;;13.30;92.00;;;;;;5020587;28;20068;-65
2021/10/27 12:50:13;;;;;;;84.45;15.75;;;13.30;92.00;;;;;;5006407;28;20099;-65
2021/10/27 12:52:44;;;;;;;67.63;15.82;;;13.30;92.00;;;;;;5028311;28;20125;-64
2021/10/27 12:55:12;;;;;;;87.05;16.38;;;13.30;92.00;;;;;;5004383;28;20376;-65
2021/10/27 12:58:03;;;;;;;72.43;16.90;;;13.40;92.00;;;;;;5021231;28;20081;-65
2021/10/27 13:00:38;;;;;;;68.57;15.18;;;13.30;92.00;;;;;;5013235;28;20041;-66
2021/10/27 13:06:00;;;;;;;70.78;14.18;;;13.40;92.10;;;;;;5013131;28;20075;-65
2021/10/27 13:16:09;;;;;;;81.90;15.32;;;13.50;92.10;;;;;;5013052;28;20068;-65
2021/10/27 13:21:25;;;;;;;80.95;15.25;;;13.50;92.10;;;;;;5016110;28;20037;-65
2021/10/27 13:31:51;;;;;;;92.97;16.40;;;13.60;92.00;;;;;;5019649;28;21437;-65
2021/10/27 13:34:17;;;;;;;98.30;17.80;;;13.60;92.00;;;;;;5013280;28;20013;-66
2021/10/27 13:36:43;;;;;;;85.63;15.70;;;13.60;92.00;;;;;;5022000;28;20036;-67
2021/10/27 13:39:08;;;;;;;86.32;17.63;;;13.60;92.00;;;;;;5008121;28;20037;-65
2021/10/27 13:41:35;;;;;;;72.07;15.60;;;13.60;92.00;;;;;;5013523;28;20032;-65
2021/10/27 13:44:22;;;;;;;76.30;16.85;;;13.70;92.00;;;;;;5020181;28;20064;-65
2021/10/27 14:06:00;;;;;;;100.75;18.27;;;13.80;91.80;;;;;;5036055;28;20039;-64
2021/10/27 14:09:15;;;;;;;119.90;19.70;;;13.80;91.80;;;;;;5021632;28;20143;-65
2021/10/27 14:11:21;;;;;;;93.85;17.23;;;13.80;91.90;;;;;;4996210;28;20041;-65
2021/10/27 15:21:29;;;;;;;143.80;22.50;;;14.60;91.60;;;;;;5005433;28;20075;-65
2021/10/27 15:24:18;;;;;;;160.63;24.48;;;14.60;91.50;;;;;;5005906;28;20389;-64
2021/10/27 15:29:36;;;;;;;139.85;22.27;;;14.60;91.50;;;;;;5005771;28;20052;-63
2021/10/27 15:43:21;;;;;;;148.15;23.92;;;14.70;91.70;;;;;;4998449;28;20392;-64
2021/10/27 15:50:55;;;;;;;132.38;21.42;;;14.70;91.70;;;;;;5034101;28;20743;-64
2021/10/27 15:53:20;;;;;;;180.60;25.73;;;14.80;91.80;;;;;;5003741;28;20425;-64
2021/10/27 15:55:46;;;;;;;169.82;22.98;;;14.70;91.70;;;;;;5002902;28;20129;-65
2021/10/27 15:58:11;;;;;;;145.63;25.05;;;14.70;91.70;;;;;;4999899;28;20039;-64
2021/10/27 16:00:40;;;;;;;119.25;21.13;;;14.60;91.70;;;;;;5002816;28;20110;-64
2021/10/27 16:03:07;;;;;;;155.77;22.65;;;14.70;91.60;;;;;;5006318;28;20398;-65
2021/10/27 16:05:39;;;;;;;129.27;22.83;;;14.80;91.60;;;;;;5016900;28;20087;-64
2021/10/27 16:08:06;;;;;;;130.73;21.58;;;14.70;91.70;;;;;;4997082;28;20029;-66
2021/10/27 16:10:34;;;;;;;166.25;22.80;;;14.70;91.50;;;;;;4999659;28;20028;-66
2021/10/27 16:12:59;;;;;;;108.80;20.58;;;14.70;91.50;;;;;;4999720;28;20024;-65
2021/10/27 16:15:35;;;;;;;101.40;18.90;;;14.70;91.40;;;;;;5029293;28;20627;-65
2021/10/27 16:18:11;;;;;;;113.80;21.35;;;14.70;91.40;;;;;;5038255;28;20025;-64
2021/10/27 16:20:37;;;;;;;;;;;14.70;91.50;;;;;;5024896;28;20021;-65
2021/10/27 16:23:04;;;;;;;114.00;18.33;;;14.60;91.40;;;;;;5033851;28;19925;-65
2021/10/27 16:25:30;;;;;;;129.43;21.25;;;14.60;91.40;;;;;;5002964;28;20090;-65
2021/10/27 16:27:56;;;;;;;118.75;20.83;;;14.60;91.60;;;;;;4987040;28;20376;-65
2021/10/27 16:30:22;;;;;;;165.77;25.10;;;14.60;91.70;;;;;;5003971;28;20117;-65
2021/10/27 16:32:48;;;;;;;140.73;22.65;;;14.60;91.90;;;;;;5006081;28;20040;-64
2021/10/27 16:35:13;;;;;;;118.68;20.65;;;14.60;91.60;;;;;;5003230;28;20695;-65
2021/10/27 16:37:39;;;;;;;117.60;20.75;;;14.60;91.60;;;;;;5006412;28;20047;-65
2021/10/27 16:40:05;;;;;;;128.05;20.85;;;14.60;92.00;;;;;;5021228;28;20115;-65
2021/10/27 16:42:32;;;;;;;129.77;20.05;;;14.60;92.00;;;;;;5007069;28;20088;-66
2021/10/27 16:44:57;;;;;;;130.75;20.50;;;14.60;91.80;;;;;;5008079;28;20029;-65
2021/10/27 16:47:23;;;;;;;139.30;22.35;;;14.60;91.80;;;;;;5005605;28;20082;-64
2021/10/27 16:49:48;;;;;;;100.07;19.45;;;14.60;91.80;;;;;;5007546;28;20549;-65
2021/10/27 16:52:15;;;;;;;126.30;20.75;;;14.60;91.70;;;;;;5021308;28;20070;-64
2021/10/27 16:54:41;;;;;;;131.98;21.65;;;14.60;91.60;;;;;;5003583;28;20033;-65
2021/10/27 16:57:06;;;;;;;130.40;22.02;;;14.70;91.80;;;;;;5004176;28;20091;-65
2021/10/27 16:59:32;;;;;;;121.97;20.48;;;14.70;91.80;;;;;;5000418;28;20037;-65
2021/10/27 17:01:58;;;;;;;129.73;21.98;;;14.70;91.80;;;;;;4987653;28;20073;-65
2021/10/27 17:04:23;;;;;;;121.75;22.50;;;14.60;91.80;;;;;;5032416;28;20063;-65
2021/10/27 17:06:49;;;;;;;144.18;22.88;;;14.70;91.80;;;;;;5028650;28;20085;-64
2021/10/27 17:09:14;;;;;;;123.68;22.58;;;14.70;91.90;;;;;;5008236;28;20051;-64